createdAt,value
2022-10-12T00:02:19.713Z,15.20
2022-10-12T00:05:06.501Z,16.75
2022-10-12T00:07:54.463Z,10.85
2022-10-12T00:10:34.493Z,16.98
2022-10-12T00:13:23.485Z,7.65
2022-10-12T00:15:57.497Z,14.95
2022-10-12T00:18:45.464Z,13.30
2022-10-12T00:21:19.714Z,12.90
2022-10-12T00:24:10.473Z,12.35
2022-10-12T00:26:44.433Z,18.45
2022-10-12T00:29:32.468Z,10.93
2022-10-12T00:32:06.495Z,12.98
2022-10-12T00:34:54.471Z,11.63
2022-10-12T00:37:28.430Z,9.27
2022-10-12T00:40:23.472Z,11.45
2022-10-12T00:43:17.456Z,10.10
2022-10-12T00:46:06.488Z,10.80
2022-10-12T00:48:40.514Z,8.18
2022-10-12T00:51:29.489Z,10.90
2022-10-12T00:54:09.737Z,9.75
2022-10-12T00:56:59.486Z,8.75
2022-10-12T00:59:39.687Z,6.97
2022-10-12T01:02:27.489Z,4.07
2022-10-12T01:05:08.559Z,3.05
2022-10-12T01:07:48.507Z,4.78
2022-10-12T01:10:36.485Z,4.72
2022-10-12T01:13:17.478Z,4.85
2022-10-12T01:16:15.490Z,11.75
2022-10-12T01:19:22.494Z,5.78
2022-10-12T01:22:13.482Z,10.63
2022-10-12T01:24:53.556Z,4.25
2022-10-12T01:27:44.456Z,14.18
2022-10-12T01:30:22.249Z,6.50
2022-10-12T01:35:48.542Z,5.90
2022-10-12T01:38:51.486Z,8.35
2022-10-12T01:41:29.536Z,13.43
2022-10-12T01:44:16.471Z,13.90
2022-10-12T01:46:51.563Z,9.00
2022-10-12T01:49:41.489Z,6.20
2022-10-12T01:55:21.477Z,10.45
2022-10-12T01:57:56.471Z,10.48
2022-10-12T02:00:54.524Z,7.95
2022-10-12T02:03:40.929Z,7.25
2022-10-12T02:06:30.468Z,4.72
2022-10-12T02:09:28.562Z,11.10
2022-10-12T02:12:23.460Z,4.82
2022-10-12T02:15:07.553Z,8.98
2022-10-12T02:17:49.482Z,11.93
2022-10-12T02:20:30.627Z,8.88
2022-10-12T02:23:11.466Z,10.13
2022-10-12T02:25:53.568Z,10.68
2022-10-12T02:28:34.556Z,10.55
2022-10-12T02:31:21.562Z,11.63
2022-10-12T02:34:20.493Z,8.98
2022-10-12T02:37:23.476Z,11.80
2022-10-12T02:40:09.498Z,12.80
2022-10-12T02:43:10.394Z,13.75
2022-10-12T02:45:47.448Z,8.48
2022-10-12T02:48:36.484Z,12.30
2022-10-12T02:51:18.470Z,8.05
2022-10-12T02:54:06.484Z,7.57
2022-10-12T02:56:47.290Z,8.20
2022-10-12T02:59:34.499Z,7.78
2022-10-12T03:02:10.137Z,7.55
2022-10-12T03:04:57.478Z,6.00
2022-10-12T03:07:31.441Z,8.30
2022-10-12T03:10:19.481Z,6.82
2022-10-12T03:12:59.509Z,3.97
2022-10-12T03:15:40.580Z,14.75
2022-10-12T03:18:20.490Z,8.38
2022-10-12T03:21:01.561Z,8.43
2022-10-12T03:23:41.467Z,6.22
2022-10-12T03:26:29.480Z,7.22
2022-10-12T03:29:10.482Z,6.90
2022-10-12T03:31:51.546Z,10.32
2022-10-12T03:34:31.487Z,9.68
2022-10-12T03:37:19.488Z,7.30
2022-10-12T03:39:53.429Z,11.15
2022-10-12T03:42:41.471Z,9.20
2022-10-12T03:45:22.506Z,9.98
2022-10-12T03:48:10.496Z,3.00
2022-10-12T03:50:49.013Z,4.38
2022-10-12T03:53:36.511Z,8.85
2022-10-12T03:56:23.502Z,11.07
2022-10-12T03:58:57.566Z,8.10
2022-10-12T04:01:45.570Z,12.20
2022-10-12T04:04:26.511Z,17.05
2022-10-12T04:07:14.500Z,9.82
2022-10-12T04:09:55.490Z,11.38
2022-10-12T04:12:42.515Z,5.75
2022-10-12T04:15:18.268Z,6.28
2022-10-12T04:18:05.497Z,11.45
2022-10-12T04:20:39.568Z,8.05
2022-10-12T04:23:26.516Z,10.85
2022-10-12T04:26:00.576Z,8.98
2022-10-12T04:28:47.568Z,9.95
2022-10-12T04:31:21.743Z,8.15
2022-10-12T04:34:08.520Z,12.88
2022-10-12T04:36:42.575Z,16.85
2022-10-12T04:39:29.508Z,15.55
2022-10-12T04:42:03.615Z,12.52
2022-10-12T04:44:50.520Z,13.10
2022-10-12T04:47:24.618Z,16.60
2022-10-12T04:50:12.483Z,18.50
2022-10-12T04:52:46.587Z,16.13
2022-10-12T04:55:34.493Z,11.43
2022-10-12T04:58:08.598Z,16.85
2022-10-12T05:00:56.485Z,10.65
2022-10-12T05:03:41.846Z,7.43
2022-10-12T05:06:23.489Z,16.98
2022-10-12T05:09:04.569Z,14.57
2022-10-12T05:11:44.501Z,5.65
2022-10-12T05:14:35.127Z,15.25
2022-10-12T05:17:10.940Z,6.40
2022-10-12T05:19:58.512Z,9.85
2022-10-12T05:22:32.583Z,13.77
2022-10-12T05:25:20.522Z,8.93
2022-10-12T05:27:54.444Z,10.52
2022-10-12T05:30:42.544Z,6.63
2022-10-12T05:33:22.503Z,4.53
2022-10-12T05:36:03.595Z,8.55
2022-10-12T05:38:43.494Z,7.85
2022-10-12T05:41:31.495Z,5.07
2022-10-12T05:44:12.511Z,12.73
2022-10-12T05:46:53.594Z,8.02
2022-10-12T05:49:33.532Z,5.78
2022-10-12T05:52:14.589Z,6.60
2022-10-12T05:54:55.495Z,6.25
2022-10-12T05:57:48.399Z,5.18
2022-10-12T06:00:24.452Z,4.10
2022-10-12T06:03:12.513Z,7.85
2022-10-12T06:06:06.520Z,6.38
2022-10-12T06:09:00.505Z,6.97
2022-10-12T06:14:21.580Z,9.82
2022-10-12T06:17:02.520Z,11.05
2022-10-12T06:19:43.513Z,14.32
2022-10-12T06:22:17.586Z,5.07
2022-10-12T06:25:05.512Z,8.40
2022-10-12T06:27:40.653Z,3.95
2022-10-12T06:30:28.548Z,7.03
2022-10-12T06:33:09.535Z,6.40
2022-10-12T06:35:56.513Z,9.27
2022-10-12T06:38:30.582Z,4.13
2022-10-12T06:41:17.511Z,7.63
2022-10-12T06:43:58.520Z,10.45
2022-10-12T06:46:52.488Z,8.07
2022-10-12T06:52:13.590Z,4.63
2022-10-12T06:54:54.548Z,6.40
2022-10-12T06:57:34.695Z,7.45
2022-10-12T07:00:15.526Z,10.65
2022-10-12T07:03:09.514Z,8.10
2022-10-12T07:05:57.506Z,7.00
2022-10-12T07:08:31.603Z,10.75
2022-10-12T07:11:19.500Z,9.18
2022-10-12T07:14:00.611Z,9.38
2022-10-12T07:16:41.521Z,10.13
2022-10-12T07:19:22.592Z,7.95
2022-10-12T07:22:02.526Z,7.25
2022-10-12T07:24:43.576Z,10.00
2022-10-12T07:27:24.551Z,12.13
2022-10-12T07:30:05.624Z,6.43
2022-10-12T07:32:45.517Z,8.80
2022-10-12T07:35:33.538Z,7.05
2022-10-12T07:38:14.527Z,5.45
2022-10-12T07:40:55.586Z,7.90
2022-10-12T07:43:37.563Z,7.80
2022-10-12T07:46:18.620Z,4.43
2022-10-12T07:48:58.549Z,12.13
2022-10-12T07:51:46.530Z,10.52
2022-10-12T07:54:23.486Z,10.70
2022-10-12T07:57:07.507Z,6.10
2022-10-12T07:59:48.579Z,9.05
2022-10-12T08:02:22.497Z,6.95
2022-10-12T08:05:10.517Z,10.30
2022-10-12T08:07:44.479Z,10.52
2022-10-12T08:10:32.511Z,8.15
2022-10-12T08:13:06.470Z,3.75
2022-10-12T08:15:54.550Z,8.35
2022-10-12T08:18:28.599Z,7.75
2022-10-12T08:21:19.554Z,6.45
2022-10-12T08:23:53.447Z,7.18
2022-10-12T08:26:41.553Z,4.30
2022-10-12T08:29:15.456Z,4.28
2022-10-12T08:32:03.541Z,6.78
2022-10-12T08:34:44.549Z,6.93
2022-10-12T08:37:32.500Z,2.70
2022-10-12T08:40:13.528Z,9.68
2022-10-12T08:43:03.644Z,9.27
2022-10-12T08:48:45.541Z,4.03
2022-10-12T08:51:31.626Z,5.95
2022-10-12T08:54:12.596Z,6.47
2022-10-12T08:56:53.520Z,6.22
2022-10-12T08:59:35.599Z,6.68
2022-10-12T09:02:34.539Z,6.45
2022-10-12T09:05:23.555Z,4.07
2022-10-12T09:08:11.531Z,5.60
2022-10-12T09:10:56.618Z,7.30
2022-10-12T09:13:49.679Z,7.03
2022-10-12T09:16:40.558Z,9.50
2022-10-12T09:19:27.621Z,5.60
2022-10-12T09:22:21.533Z,4.82
2022-10-12T09:24:55.613Z,5.53
2022-10-12T09:27:45.311Z,9.90
2022-10-12T09:30:24.673Z,7.90
2022-10-12T09:33:11.551Z,7.45
2022-10-12T09:35:47.632Z,3.72
2022-10-12T09:38:34.557Z,9.17
2022-10-12T09:41:27.697Z,7.60
2022-10-12T09:44:08.553Z,2.17
2022-10-12T09:46:49.644Z,2.50
2022-10-12T09:49:30.532Z,4.47
2022-10-12T09:52:11.612Z,7.03
2022-10-12T09:55:13.931Z,3.17
2022-10-12T09:58:04.752Z,9.27
2022-10-12T10:00:44.598Z,4.28
2022-10-12T10:03:38.510Z,6.57
2022-10-12T10:06:21.568Z,8.05
2022-10-12T10:09:09.533Z,4.55
2022-10-12T10:11:43.620Z,6.47
2022-10-12T10:14:31.550Z,3.05
2022-10-12T10:17:30.532Z,6.38
2022-10-12T10:20:29.535Z,5.45
2022-10-12T10:23:03.679Z,5.82
2022-10-12T10:26:01.559Z,5.22
2022-10-12T10:28:36.699Z,10.23
2022-10-12T10:31:31.566Z,7.22
2022-10-12T10:34:25.550Z,6.72
2022-10-12T10:37:13.571Z,5.97
2022-10-12T10:39:55.695Z,4.63
2022-10-12T10:42:43.552Z,7.28
2022-10-12T10:45:28.664Z,7.18
2022-10-12T10:48:17.575Z,3.22
2022-10-12T10:51:00.366Z,6.05
2022-10-12T10:53:54.547Z,2.80
2022-10-12T10:56:42.567Z,9.52
2022-10-12T10:59:47.554Z,4.63
2022-10-12T11:03:00.580Z,3.05
2022-10-12T11:05:34.645Z,6.70
2022-10-12T11:08:21.681Z,4.50
2022-10-12T11:11:03.674Z,5.32
2022-10-12T11:13:50.543Z,4.13
2022-10-12T11:16:24.644Z,3.22
2022-10-12T11:19:33.552Z,7.97
2022-10-12T11:22:12.692Z,4.05
2022-10-12T11:25:27.582Z,4.50
2022-10-12T11:28:01.639Z,6.68
2022-10-12T11:30:53.561Z,10.75
2022-10-12T11:33:39.655Z,7.95
2022-10-12T11:36:25.574Z,8.00
2022-10-12T11:39:10.566Z,4.10
2022-10-12T11:42:16.832Z,6.47
2022-10-12T11:45:08.585Z,4.47
2022-10-12T11:48:00.568Z,4.20
2022-10-12T11:50:42.654Z,2.80
2022-10-12T11:53:56.576Z,2.72
2022-10-12T11:56:30.713Z,4.15
2022-10-12T11:59:33.648Z,7.32
2022-10-12T12:02:07.705Z,32.25
2022-10-12T12:04:56.128Z,17.42
2022-10-12T12:07:37.584Z,3.97
2022-10-12T12:10:41.572Z,6.63
2022-10-12T12:13:29.622Z,7.75
2022-10-12T12:16:09.575Z,5.63
2022-10-12T12:19:19.662Z,3.53
2022-10-12T12:22:18.631Z,4.43
2022-10-12T12:25:21.584Z,4.70
2022-10-12T12:28:05.922Z,7.07
2022-10-12T12:30:54.589Z,5.18
2022-10-12T12:33:32.021Z,2.63
2022-10-12T12:36:21.592Z,4.10
2022-10-12T12:38:55.645Z,3.97
2022-10-12T12:42:04.600Z,6.57
2022-10-12T12:44:42.817Z,4.93
2022-10-12T12:47:45.045Z,4.07
2022-10-12T12:50:43.574Z,2.92
2022-10-12T12:53:28.682Z,2.55
2022-10-12T12:56:37.595Z,4.20
2022-10-12T12:59:50.684Z,3.05
2022-10-12T13:02:42.623Z,1.90
2022-10-12T13:06:03.602Z,4.88
2022-10-12T13:08:43.036Z,3.80
2022-10-12T13:11:35.598Z,4.03
2022-10-12T13:14:27.606Z,3.60
2022-10-12T13:20:32.590Z,3.38
2022-10-12T13:23:18.658Z,3.08
2022-10-12T13:26:08.598Z,3.42
2022-10-12T13:28:50.088Z,5.78
2022-10-12T13:31:51.624Z,4.72
2022-10-12T13:34:42.600Z,5.20
2022-10-12T13:37:23.600Z,7.13
2022-10-12T13:40:04.670Z,6.20
2022-10-12T13:42:44.579Z,17.30
2022-10-12T13:45:26.748Z,14.27
2022-10-12T13:48:46.326Z,10.55
2022-10-12T13:51:33.710Z,7.13
2022-10-12T13:54:29.588Z,5.80
2022-10-12T13:57:19.966Z,4.13
2022-10-12T14:02:51.808Z,7.20
2022-10-12T14:05:27.628Z,4.88
2022-10-12T14:08:28.618Z,8.32
2022-10-12T14:11:23.603Z,11.63
2022-10-12T14:14:11.606Z,7.22
2022-10-12T14:16:59.617Z,9.40
2022-10-12T14:19:56.388Z,9.93
2022-10-12T14:22:45.605Z,5.28
2022-10-12T14:28:09.608Z,4.57
2022-10-12T14:33:38.672Z,9.07
2022-10-12T14:36:18.625Z,6.32
2022-10-12T14:39:02.593Z,6.43
2022-10-12T14:41:51.616Z,3.53
2022-10-12T14:44:32.700Z,12.13
2022-10-12T14:47:23.617Z,9.27
2022-10-12T14:50:08.237Z,5.60
2022-10-12T14:52:48.613Z,4.68
2022-10-12T14:55:34.928Z,2.88
2022-10-12T14:58:18.632Z,5.20
2022-10-12T15:00:59.798Z,4.70
2022-10-12T15:03:40.655Z,5.22
2022-10-12T15:06:22.713Z,5.10
2022-10-12T15:09:02.653Z,8.05
2022-10-12T15:11:43.691Z,4.65
2022-10-12T15:14:23.620Z,6.85
2022-10-12T15:17:05.382Z,9.93
2022-10-12T15:19:46.621Z,7.65
2022-10-12T15:22:28.997Z,4.13
2022-10-12T15:25:23.620Z,7.28
2022-10-12T15:28:04.774Z,3.60
2022-10-12T15:31:11.763Z,7.80
2022-10-12T15:33:52.616Z,5.18
2022-10-12T15:36:26.203Z,5.90
2022-10-12T15:39:13.635Z,5.18
2022-10-12T15:41:47.214Z,5.40
2022-10-12T15:44:34.652Z,9.32
2022-10-12T15:47:10.761Z,12.35
2022-10-12T15:49:58.636Z,10.00
2022-10-12T15:52:38.641Z,7.35
2022-10-12T15:55:37.643Z,10.43
2022-10-12T15:58:11.243Z,7.40
2022-10-12T16:00:58.754Z,19.02
2022-10-12T16:03:32.870Z,6.88
2022-10-12T16:06:20.644Z,11.05
2022-10-12T16:08:54.736Z,18.20
2022-10-12T16:11:42.683Z,17.00
2022-10-12T16:14:16.445Z,34.70
2022-10-12T16:17:03.636Z,29.48
2022-10-12T16:19:43.649Z,28.02
2022-10-12T16:22:24.724Z,11.23
2022-10-12T16:25:04.626Z,26.27
2022-10-12T16:27:52.673Z,22.38
2022-10-12T16:30:26.551Z,46.90
2022-10-12T16:33:14.654Z,47.25
2022-10-12T16:35:48.181Z,87.18
2022-10-12T16:38:35.633Z,100.07
2022-10-12T16:41:14.383Z,99.68
2022-10-12T16:44:01.675Z,83.07
2022-10-12T16:46:36.939Z,89.28
2022-10-12T16:49:24.654Z,55.55
2022-10-12T16:51:58.172Z,63.20
2022-10-12T16:54:45.648Z,107.15
2022-10-12T16:57:19.676Z,169.15
2022-10-12T17:00:07.662Z,100.88
2022-10-12T17:02:42.689Z,33.47
2022-10-12T17:05:30.646Z,36.17
2022-10-12T17:08:04.424Z,50.45
2022-10-12T17:10:57.634Z,26.42
2022-10-12T17:13:32.907Z,27.45
2022-10-12T17:16:39.655Z,23.17
2022-10-12T17:19:38.664Z,41.13
2022-10-12T17:22:25.671Z,17.75
2022-10-12T17:25:02.801Z,23.05
2022-10-12T17:27:49.656Z,15.13
2022-10-12T17:30:23.738Z,15.32
2022-10-12T17:33:11.666Z,19.20
2022-10-12T17:35:55.679Z,18.13
2022-10-12T17:38:43.661Z,14.68
2022-10-12T17:41:24.680Z,21.30
2022-10-12T17:44:18.652Z,18.33
2022-10-12T17:47:06.668Z,13.20
2022-10-12T17:49:47.637Z,19.95
2022-10-12T17:52:34.698Z,29.15
2022-10-12T17:55:36.081Z,20.67
2022-10-12T17:58:29.658Z,9.65
2022-10-12T18:04:06.759Z,16.10
2022-10-12T18:06:47.701Z,20.10
2022-10-12T18:09:28.761Z,12.38
2022-10-12T18:12:08.654Z,11.82
2022-10-12T18:14:49.750Z,13.43
2022-10-12T18:17:30.675Z,16.35
2022-10-12T18:20:11.877Z,14.05
2022-10-12T18:22:51.696Z,15.23
2022-10-12T18:25:32.744Z,10.90
2022-10-12T18:28:13.719Z,14.48
2022-10-12T18:31:03.685Z,15.98
2022-10-12T18:33:44.674Z,20.25
2022-10-12T18:36:27.835Z,19.55
2022-10-12T18:39:08.693Z,20.05
2022-10-12T18:41:49.761Z,16.58
2022-10-12T18:44:29.675Z,9.52
2022-10-12T18:47:11.223Z,14.25
2022-10-12T18:49:50.661Z,17.42
2022-10-12T18:52:38.759Z,13.45
2022-10-12T18:55:18.712Z,18.38
2022-10-12T18:57:59.851Z,27.75
2022-10-12T19:00:39.735Z,14.05
2022-10-12T19:03:20.814Z,23.02
2022-10-12T19:06:09.701Z,26.65
2022-10-12T19:08:57.695Z,17.33
2022-10-12T19:11:31.872Z,14.70
2022-10-12T19:14:22.705Z,14.57
2022-10-12T19:17:02.738Z,24.95
2022-10-12T19:19:43.792Z,43.20
2022-10-12T19:22:23.697Z,47.90
2022-10-12T19:25:04.767Z,12.90
2022-10-12T19:27:44.708Z,15.20
2022-10-12T19:30:26.711Z,20.55
2022-10-12T19:33:07.680Z,16.92
2022-10-12T19:35:49.104Z,14.30
2022-10-12T19:38:29.708Z,13.02
2022-10-12T19:41:17.683Z,11.48
2022-10-12T19:44:13.687Z,13.43
2022-10-12T19:47:01.695Z,19.02
2022-10-12T19:49:37.343Z,20.73
2022-10-12T19:52:25.694Z,15.13
2022-10-12T19:55:06.673Z,16.25
2022-10-12T19:57:55.713Z,16.35
2022-10-12T20:00:36.778Z,15.43
2022-10-12T20:03:30.698Z,15.25
2022-10-12T20:08:52.660Z,13.57
2022-10-12T20:11:40.715Z,17.17
2022-10-12T20:14:21.667Z,22.45
2022-10-12T20:17:09.720Z,15.30
2022-10-12T20:19:49.747Z,17.60
2022-10-12T20:22:37.704Z,17.52
2022-10-12T20:25:18.682Z,15.38
2022-10-12T20:28:02.815Z,17.95
2022-10-12T20:30:43.697Z,23.13
2022-10-12T20:33:24.749Z,14.48
2022-10-12T20:36:05.708Z,14.77
2022-10-12T20:38:53.688Z,19.67
2022-10-12T20:41:27.917Z,17.13
2022-10-12T20:44:15.686Z,15.38
2022-10-12T20:46:50.155Z,17.20
2022-10-12T20:49:37.705Z,14.27
2022-10-12T20:52:11.829Z,10.52
2022-10-12T20:54:59.717Z,18.52
2022-10-12T20:57:33.638Z,18.05
2022-10-12T21:00:21.726Z,19.88
2022-10-12T21:02:55.631Z,23.00
2022-10-12T21:05:36.721Z,23.63
2022-10-12T21:08:10.783Z,19.17
2022-10-12T21:10:54.713Z,17.52
2022-10-12T21:13:42.857Z,15.07
2022-10-12T21:16:23.705Z,19.15
2022-10-12T21:19:11.685Z,20.45
2022-10-12T21:21:46.646Z,19.73
2022-10-12T21:24:34.712Z,48.72
2022-10-12T21:27:08.712Z,56.15
2022-10-12T21:29:56.701Z,62.38
2022-10-12T21:32:38.699Z,55.22
2022-10-12T21:35:19.885Z,33.83
2022-10-12T21:38:06.687Z,40.03
2022-10-12T21:40:40.810Z,35.35
2022-10-12T21:43:27.703Z,44.40
2022-10-12T21:46:01.802Z,33.22
2022-10-12T21:48:49.717Z,31.23
2022-10-12T21:51:24.787Z,27.63
2022-10-12T21:54:12.707Z,20.50
2022-10-12T21:56:53.717Z,26.50
2022-10-12T21:59:47.706Z,40.50
2022-10-12T22:02:36.707Z,67.57
2022-10-12T22:05:10.829Z,122.97
2022-10-12T22:07:57.718Z,76.15
2022-10-12T22:10:31.765Z,50.72
2022-10-12T22:13:19.705Z,55.42
2022-10-12T22:16:00.699Z,56.42
2022-10-12T22:18:48.712Z,65.18
2022-10-12T22:21:30.744Z,59.45
2022-10-12T22:24:25.719Z,46.47
2022-10-12T22:27:13.703Z,51.03
2022-10-12T22:29:54.710Z,44.97
2022-10-12T22:32:48.714Z,42.97
2022-10-12T22:35:35.720Z,40.05
2022-10-12T22:38:10.116Z,40.22
2022-10-12T22:41:05.722Z,34.15
2022-10-12T22:43:40.795Z,38.35
2022-10-12T22:46:28.748Z,19.05
2022-10-12T22:49:09.729Z,19.30
2022-10-12T22:52:03.707Z,18.45
2022-10-12T22:57:24.821Z,19.55
2022-10-12T23:00:05.728Z,17.52
2022-10-12T23:02:45.800Z,21.08
2022-10-12T23:05:26.746Z,15.48
2022-10-12T23:08:00.694Z,19.23
2022-10-12T23:10:48.741Z,23.95
2022-10-12T23:13:22.667Z,24.77
2022-10-12T23:16:17.702Z,21.65
2022-10-12T23:19:10.513Z,19.75
2022-10-12T23:21:57.718Z,22.80
2022-10-12T23:24:37.729Z,18.50
2022-10-12T23:27:25.729Z,22.75
2022-10-12T23:29:59.692Z,22.55
2022-10-12T23:32:47.733Z,21.38
2022-10-12T23:35:27.716Z,18.23
2022-10-12T23:38:08.804Z,22.98
2022-10-12T23:40:48.719Z,20.33
2022-10-12T23:43:36.750Z,19.58
2022-10-12T23:46:11.958Z,17.88
2022-10-12T23:48:59.729Z,16.90
2022-10-12T23:51:33.694Z,17.50
2022-10-12T23:54:21.728Z,21.40
2022-10-12T23:56:55.688Z,20.52
2022-10-12T23:59:43.742Z,20.02
